Terminal Aerodrome Forecast
Issued by NWS North Platte, NE

Home | Current Version | Previous Version | Text Only | Print | Product List | Glossary Off
Versions: 1 2 3 4 5 6 7 8 9 10 11 12 13 14 15 16 17 18 19 20 21 22 23 24 25 26 27 28

082
FTUS43 KLBF 140146 AAA
TAFVTN
TAF AMD
KVTN 140146Z 1402/1424 18013G23KT P6SM OVC008
      TEMPO 1403/1405 BKN011
     FM140500 28017KT P6SM SCT011
     FM141400 29012KT P6SM SCT250=

USA.gov is the U.S. government's official web portal to all federal, state and local government web resources and services.